sensor_id;sensor_type;location;lat;lon;timestamp;temperature;humidity
47600;DHT22;33323;52.124;6.018;2023-04-10T00:00:34;7.70;99.90
47600;DHT22;33323;52.124;6.018;2023-04-10T00:03:03;7.50;99.90
47600;DHT22;33323;52.124;6.018;2023-04-10T00:05:31;7.40;99.90
47600;DHT22;33323;52.124;6.018;2023-04-10T00:07:58;7.30;99.90
47600;DHT22;33323;52.124;6.018;2023-04-10T00:10:25;7.20;99.90
47600;DHT22;33323;52.124;6.018;2023-04-10T00:12:54;7.00;99.90
47600;DHT22;33323;52.124;6.018;2023-04-10T00:15:22;7.00;99.90
47600;DHT22;33323;52.124;6.018;2023-04-10T00:17:49;6.90;99.90
47600;DHT22;33323;52.124;6.018;2023-04-10T00:20:23;6.90;99.90
47600;DHT22;33323;52.124;6.018;2023-04-10T00:22:52;6.90;99.90
47600;DHT22;33323;52.124;6.018;2023-04-10T00:25:19;6.90;99.90
47600;DHT22;33323;52.124;6.018;2023-04-10T00:27:48;6.90;99.90
47600;DHT22;33323;52.124;6.018;2023-04-10T00:30:15;6.90;99.90
47600;DHT22;33323;52.124;6.018;2023-04-10T00:32:42;6.90;99.90
47600;DHT22;33323;52.124;6.018;2023-04-10T00:35:10;6.90;99.90
47600;DHT22;33323;52.124;6.018;2023-04-10T00:37:37;6.80;99.90
47600;DHT22;33323;52.124;6.018;2023-04-10T00:40:04;6.90;99.90
47600;DHT22;33323;52.124;6.018;2023-04-10T00:42:32;6.90;99.90
47600;DHT22;33323;52.124;6.018;2023-04-10T00:44:59;6.90;99.90
47600;DHT22;33323;52.124;6.018;2023-04-10T00:47:27;6.90;99.90
47600;DHT22;33323;52.124;6.018;2023-04-10T00:49:54;6.90;99.90
47600;DHT22;33323;52.124;6.018;2023-04-10T00:52:22;6.80;99.90
47600;DHT22;33323;52.124;6.018;2023-04-10T00:54:50;6.70;99.90
47600;DHT22;33323;52.124;6.018;2023-04-10T00:57:18;6.50;99.90
47600;DHT22;33323;52.124;6.018;2023-04-10T00:59:45;6.50;99.90
47600;DHT22;33323;52.124;6.018;2023-04-10T01:02:13;6.50;99.90
47600;DHT22;33323;52.124;6.018;2023-04-10T01:04:41;6.50;99.90
47600;DHT22;33323;52.124;6.018;2023-04-10T01:10:03;6.50;99.90
47600;DHT22;33323;52.124;6.018;2023-04-10T01:15:36;6.50;99.90
47600;DHT22;33323;52.124;6.018;2023-04-10T01:18:18;6.50;99.90
47600;DHT22;33323;52.124;6.018;2023-04-10T01:20:50;6.50;99.90
47600;DHT22;33323;52.124;6.018;2023-04-10T01:29:28;6.50;99.90
47600;DHT22;33323;52.124;6.018;2023-04-10T01:32:07;6.50;99.90
47600;DHT22;33323;52.124;6.018;2023-04-10T01:35:05;6.40;99.90
47600;DHT22;33323;52.124;6.018;2023-04-10T01:37:36;6.40;99.90
47600;DHT22;33323;52.124;6.018;2023-04-10T01:40:08;6.40;99.90
47600;DHT22;33323;52.124;6.018;2023-04-10T01:42:50;6.30;99.90
47600;DHT22;33323;52.124;6.018;2023-04-10T01:45:24;6.20;99.90
47600;DHT22;33323;52.124;6.018;2023-04-10T01:47:54;6.20;99.90
47600;DHT22;33323;52.124;6.018;2023-04-10T01:50:22;6.20;99.90
47600;DHT22;33323;52.124;6.018;2023-04-10T01:52:51;6.20;99.90
47600;DHT22;33323;52.124;6.018;2023-04-10T01:55:25;6.30;99.90
47600;DHT22;33323;52.124;6.018;2023-04-10T01:57:59;6.20;99.90
47600;DHT22;33323;52.124;6.018;2023-04-10T02:00:27;6.30;99.90
47600;DHT22;33323;52.124;6.018;2023-04-10T02:02:54;6.40;99.90
47600;DHT22;33323;52.124;6.018;2023-04-10T02:05:23;6.30;99.90
47600;DHT22;33323;52.124;6.018;2023-04-10T02:08:11;6.40;99.90
47600;DHT22;33323;52.124;6.018;2023-04-10T02:11:01;6.40;99.90
47600;DHT22;33323;52.124;6.018;2023-04-10T02:13:33;6.30;99.90
47600;DHT22;33323;52.124;6.018;2023-04-10T02:16:03;6.40;99.90
47600;DHT22;33323;52.124;6.018;2023-04-10T02:18:34;6.40;99.90
47600;DHT22;33323;52.124;6.018;2023-04-10T02:21:02;6.40;99.90
47600;DHT22;33323;52.124;6.018;2023-04-10T02:23:29;6.30;99.90
47600;DHT22;33323;52.124;6.018;2023-04-10T02:25:56;6.30;99.90
47600;DHT22;33323;52.124;6.018;2023-04-10T02:28:24;6.20;99.90
47600;DHT22;33323;52.124;6.018;2023-04-10T02:30:51;6.20;99.90
47600;DHT22;33323;52.124;6.018;2023-04-10T02:33:18;6.20;99.90
47600;DHT22;33323;52.124;6.018;2023-04-10T02:35:45;6.10;99.90
47600;DHT22;33323;52.124;6.018;2023-04-10T02:38:13;6.20;99.90
47600;DHT22;33323;52.124;6.018;2023-04-10T02:40:43;6.10;99.90
47600;DHT22;33323;52.124;6.018;2023-04-10T02:43:12;6.20;99.90
47600;DHT22;33323;52.124;6.018;2023-04-10T02:45:39;6.20;99.90
47600;DHT22;33323;52.124;6.018;2023-04-10T02:48:09;6.20;99.90
47600;DHT22;33323;52.124;6.018;2023-04-10T02:50:36;6.30;99.90
47600;DHT22;33323;52.124;6.018;2023-04-10T02:53:03;6.30;99.90
47600;DHT22;33323;52.124;6.018;2023-04-10T02:55:31;6.30;99.90
47600;DHT22;33323;52.124;6.018;2023-04-10T02:57:58;6.30;99.90
47600;DHT22;33323;52.124;6.018;2023-04-10T03:00:25;6.30;99.90
47600;DHT22;33323;52.124;6.018;2023-04-10T03:03:11;6.30;99.90
47600;DHT22;33323;52.124;6.018;2023-04-10T03:05:45;6.30;99.90
47600;DHT22;33323;52.124;6.018;2023-04-10T03:08:14;6.30;99.90
47600;DHT22;33323;52.124;6.018;2023-04-10T03:10:45;6.30;99.90
47600;DHT22;33323;52.124;6.018;2023-04-10T03:13:14;6.30;99.90
47600;DHT22;33323;52.124;6.018;2023-04-10T03:15:42;6.20;99.90
47600;DHT22;33323;52.124;6.018;2023-04-10T03:18:09;6.30;99.90
47600;DHT22;33323;52.124;6.018;2023-04-10T03:20:38;6.20;99.90
47600;DHT22;33323;52.124;6.018;2023-04-10T03:23:06;6.20;99.90
47600;DHT22;33323;52.124;6.018;2023-04-10T03:25:33;6.20;99.90
47600;DHT22;33323;52.124;6.018;2023-04-10T03:28:02;6.20;99.90
47600;DHT22;33323;52.124;6.018;2023-04-10T03:30:30;6.10;99.90
47600;DHT22;33323;52.124;6.018;2023-04-10T03:32:57;6.10;99.90
47600;DHT22;33323;52.124;6.018;2023-04-10T03:35:24;6.10;99.90
47600;DHT22;33323;52.124;6.018;2023-04-10T03:37:51;6.10;99.90
47600;DHT22;33323;52.124;6.018;2023-04-10T03:40:19;6.10;99.90
47600;DHT22;33323;52.124;6.018;2023-04-10T03:42:46;6.10;99.90
47600;DHT22;33323;52.124;6.018;2023-04-10T03:45:13;6.10;99.90
47600;DHT22;33323;52.124;6.018;2023-04-10T03:47:40;6.20;99.90
47600;DHT22;33323;52.124;6.018;2023-04-10T03:50:11;6.20;99.90
47600;DHT22;33323;52.124;6.018;2023-04-10T03:52:48;6.20;99.90
47600;DHT22;33323;52.124;6.018;2023-04-10T03:55:17;6.10;99.90
47600;DHT22;33323;52.124;6.018;2023-04-10T03:57:46;6.10;99.90
47600;DHT22;33323;52.124;6.018;2023-04-10T04:00:16;6.10;99.90
47600;DHT22;33323;52.124;6.018;2023-04-10T04:02:47;6.00;99.90
47600;DHT22;33323;52.124;6.018;2023-04-10T04:05:37;6.00;99.90
47600;DHT22;33323;52.124;6.018;2023-04-10T04:08:27;5.90;99.90
47600;DHT22;33323;52.124;6.018;2023-04-10T04:11:17;5.90;99.90
47600;DHT22;33323;52.124;6.018;2023-04-10T04:14:10;5.80;99.90
47600;DHT22;33323;52.124;6.018;2023-04-10T04:17:06;5.80;99.90
47600;DHT22;33323;52.124;6.018;2023-04-10T04:19:52;5.70;99.90
47600;DHT22;33323;52.124;6.018;2023-04-10T04:22:42;5.60;99.90
47600;DHT22;33323;52.124;6.018;2023-04-10T04:25:16;5.50;99.90
47600;DHT22;33323;52.124;6.018;2023-04-10T04:28:17;5.40;99.90
47600;DHT22;33323;52.124;6.018;2023-04-10T04:30:58;5.40;99.90
47600;DHT22;33323;52.124;6.018;2023-04-10T04:33:49;5.30;99.90
47600;DHT22;33323;52.124;6.018;2023-04-10T04:36:35;5.40;99.90
47600;DHT22;33323;52.124;6.018;2023-04-10T04:39:11;5.40;99.90
47600;DHT22;33323;52.124;6.018;2023-04-10T04:42:01;5.40;99.90
47600;DHT22;33323;52.124;6.018;2023-04-10T04:44:45;5.40;99.90
47600;DHT22;33323;52.124;6.018;2023-04-10T04:47:35;5.40;99.90
47600;DHT22;33323;52.124;6.018;2023-04-10T04:50:15;5.40;99.90
47600;DHT22;33323;52.124;6.018;2023-04-10T04:53:01;5.40;99.90
47600;DHT22;33323;52.124;6.018;2023-04-10T04:55:50;5.30;99.90
47600;DHT22;33323;52.124;6.018;2023-04-10T04:58:56;5.30;99.90
47600;DHT22;33323;52.124;6.018;2023-04-10T05:01:35;5.30;99.90
47600;DHT22;33323;52.124;6.018;2023-04-10T05:04:35;5.40;99.90
47600;DHT22;33323;52.124;6.018;2023-04-10T05:07:24;5.40;99.90
47600;DHT22;33323;52.124;6.018;2023-04-10T05:10:05;5.40;99.90
47600;DHT22;33323;52.124;6.018;2023-04-10T05:12:44;5.30;99.90
47600;DHT22;33323;52.124;6.018;2023-04-10T05:15:24;5.40;99.90
47600;DHT22;33323;52.124;6.018;2023-04-10T05:18:11;5.50;99.90
47600;DHT22;33323;52.124;6.018;2023-04-10T05:21:06;5.60;99.90
47600;DHT22;33323;52.124;6.018;2023-04-10T05:23:35;5.60;99.90
47600;DHT22;33323;52.124;6.018;2023-04-10T05:26:25;5.60;99.90
47600;DHT22;33323;52.124;6.018;2023-04-10T05:29:04;5.70;99.90
47600;DHT22;33323;52.124;6.018;2023-04-10T05:31:50;5.80;99.90
47600;DHT22;33323;52.124;6.018;2023-04-10T05:34:45;5.90;99.90
47600;DHT22;33323;52.124;6.018;2023-04-10T05:37:40;6.10;99.90
47600;DHT22;33323;52.124;6.018;2023-04-10T05:40:44;6.30;99.90
47600;DHT22;33323;52.124;6.018;2023-04-10T05:43:35;6.70;99.90
47600;DHT22;33323;52.124;6.018;2023-04-10T05:46:22;7.00;99.90
47600;DHT22;33323;52.124;6.018;2023-04-10T05:49:05;7.30;99.90
47600;DHT22;33323;52.124;6.018;2023-04-10T05:51:42;7.40;99.90
47600;DHT22;33323;52.124;6.018;2023-04-10T05:54:35;7.60;99.90
47600;DHT22;33323;52.124;6.018;2023-04-10T05:57:22;7.60;99.90
47600;DHT22;33323;52.124;6.018;2023-04-10T06:00:20;7.70;99.90
47600;DHT22;33323;52.124;6.018;2023-04-10T06:03:23;7.70;99.90
47600;DHT22;33323;52.124;6.018;2023-04-10T06:05:57;7.80;99.90
47600;DHT22;33323;52.124;6.018;2023-04-10T06:08:29;7.90;99.90
47600;DHT22;33323;52.124;6.018;2023-04-10T06:10:56;8.00;99.90
47600;DHT22;33323;52.124;6.018;2023-04-10T06:13:24;8.20;99.90
47600;DHT22;33323;52.124;6.018;2023-04-10T06:15:57;8.20;99.90
47600;DHT22;33323;52.124;6.018;2023-04-10T06:18:25;8.40;99.90
47600;DHT22;33323;52.124;6.018;2023-04-10T06:20:52;8.60;99.90
47600;DHT22;33323;52.124;6.018;2023-04-10T06:23:19;8.60;99.90
47600;DHT22;33323;52.124;6.018;2023-04-10T06:25:48;8.70;99.90
47600;DHT22;33323;52.124;6.018;2023-04-10T06:28:15;8.90;99.90
47600;DHT22;33323;52.124;6.018;2023-04-10T06:30:46;9.10;99.90
47600;DHT22;33323;52.124;6.018;2023-04-10T06:33:13;9.20;99.90
47600;DHT22;33323;52.124;6.018;2023-04-10T06:35:43;9.20;99.90
47600;DHT22;33323;52.124;6.018;2023-04-10T06:38:11;9.20;99.90
47600;DHT22;33323;52.124;6.018;2023-04-10T06:40:40;9.20;99.90
47600;DHT22;33323;52.124;6.018;2023-04-10T06:43:07;9.30;99.90
47600;DHT22;33323;52.124;6.018;2023-04-10T06:45:39;9.50;99.90
47600;DHT22;33323;52.124;6.018;2023-04-10T06:48:08;9.60;99.90
47600;DHT22;33323;52.124;6.018;2023-04-10T06:50:35;9.70;99.90
47600;DHT22;33323;52.124;6.018;2023-04-10T06:53:03;9.80;99.90
47600;DHT22;33323;52.124;6.018;2023-04-10T06:55:30;9.90;99.90
47600;DHT22;33323;52.124;6.018;2023-04-10T06:57:57;10.00;99.90
47600;DHT22;33323;52.124;6.018;2023-04-10T07:00:24;10.00;99.90
47600;DHT22;33323;52.124;6.018;2023-04-10T07:02:52;10.10;99.90
47600;DHT22;33323;52.124;6.018;2023-04-10T07:05:19;10.20;99.90
47600;DHT22;33323;52.124;6.018;2023-04-10T07:07:46;10.30;99.90
47600;DHT22;33323;52.124;6.018;2023-04-10T07:10:16;10.30;99.90
47600;DHT22;33323;52.124;6.018;2023-04-10T07:12:43;10.50;99.90
47600;DHT22;33323;52.124;6.018;2023-04-10T07:15:10;10.60;99.90
47600;DHT22;33323;52.124;6.018;2023-04-10T07:17:38;10.60;99.90
47600;DHT22;33323;52.124;6.018;2023-04-10T07:20:06;10.70;99.90
47600;DHT22;33323;52.124;6.018;2023-04-10T07:22:33;10.80;99.90
47600;DHT22;33323;52.124;6.018;2023-04-10T07:25:01;10.80;99.90
47600;DHT22;33323;52.124;6.018;2023-04-10T07:27:28;11.00;99.90
47600;DHT22;33323;52.124;6.018;2023-04-10T07:29:55;11.00;99.90
47600;DHT22;33323;52.124;6.018;2023-04-10T07:32:22;11.00;99.90
47600;DHT22;33323;52.124;6.018;2023-04-10T07:34:50;11.10;99.90
47600;DHT22;33323;52.124;6.018;2023-04-10T07:37:17;11.20;99.90
47600;DHT22;33323;52.124;6.018;2023-04-10T07:39:44;11.20;99.90
47600;DHT22;33323;52.124;6.018;2023-04-10T07:42:11;11.20;99.90
47600;DHT22;33323;52.124;6.018;2023-04-10T07:44:39;11.30;99.90
47600;DHT22;33323;52.124;6.018;2023-04-10T07:47:06;11.30;99.90
47600;DHT22;33323;52.124;6.018;2023-04-10T07:49:33;11.30;99.90
47600;DHT22;33323;52.124;6.018;2023-04-10T07:52:00;11.40;99.90
47600;DHT22;33323;52.124;6.018;2023-04-10T07:54:30;11.40;99.90
47600;DHT22;33323;52.124;6.018;2023-04-10T07:56:59;11.50;99.90
47600;DHT22;33323;52.124;6.018;2023-04-10T07:59:27;11.50;99.90
47600;DHT22;33323;52.124;6.018;2023-04-10T08:01:57;11.60;99.90
47600;DHT22;33323;52.124;6.018;2023-04-10T08:04:24;11.70;99.90
47600;DHT22;33323;52.124;6.018;2023-04-10T08:06:51;11.80;99.90
47600;DHT22;33323;52.124;6.018;2023-04-10T08:09:18;11.90;99.90
47600;DHT22;33323;52.124;6.018;2023-04-10T08:11:46;11.90;99.90
47600;DHT22;33323;52.124;6.018;2023-04-10T08:14:16;12.00;99.90
47600;DHT22;33323;52.124;6.018;2023-04-10T08:16:44;12.00;99.90
47600;DHT22;33323;52.124;6.018;2023-04-10T08:19:11;12.30;99.90
47600;DHT22;33323;52.124;6.018;2023-04-10T08:21:38;12.60;99.90
47600;DHT22;33323;52.124;6.018;2023-04-10T08:24:06;12.90;99.90
47600;DHT22;33323;52.124;6.018;2023-04-10T08:26:33;13.10;99.90
47600;DHT22;33323;52.124;6.018;2023-04-10T08:29:00;13.30;99.90
47600;DHT22;33323;52.124;6.018;2023-04-10T08:31:28;13.70;99.90
47600;DHT22;33323;52.124;6.018;2023-04-10T08:33:56;13.90;99.90
47600;DHT22;33323;52.124;6.018;2023-04-10T08:36:24;14.00;99.90
47600;DHT22;33323;52.124;6.018;2023-04-10T08:38:53;14.20;99.90
47600;DHT22;33323;52.124;6.018;2023-04-10T08:41:21;14.10;99.90
47600;DHT22;33323;52.124;6.018;2023-04-10T08:43:48;14.10;99.90
47600;DHT22;33323;52.124;6.018;2023-04-10T08:46:16;14.20;99.90
47600;DHT22;33323;52.124;6.018;2023-04-10T08:49:02;14.10;99.90
47600;DHT22;33323;52.124;6.018;2023-04-10T08:51:52;13.90;99.90
47600;DHT22;33323;52.124;6.018;2023-04-10T08:54:27;13.90;99.90
47600;DHT22;33323;52.124;6.018;2023-04-10T08:56:55;14.10;99.90
47600;DHT22;33323;52.124;6.018;2023-04-10T08:59:24;14.30;99.90
47600;DHT22;33323;52.124;6.018;2023-04-10T09:01:52;14.10;99.90
47600;DHT22;33323;52.124;6.018;2023-04-10T09:04:19;14.00;99.90
47600;DHT22;33323;52.124;6.018;2023-04-10T09:06:47;14.00;99.90
47600;DHT22;33323;52.124;6.018;2023-04-10T09:09:14;14.00;99.90
47600;DHT22;33323;52.124;6.018;2023-04-10T09:14:21;14.20;99.90
47600;DHT22;33323;52.124;6.018;2023-04-10T09:16:50;14.20;99.90
47600;DHT22;33323;52.124;6.018;2023-04-10T09:19:31;14.40;99.90
47600;DHT22;33323;52.124;6.018;2023-04-10T09:21:59;14.50;99.90
47600;DHT22;33323;52.124;6.018;2023-04-10T09:24:27;14.40;99.90
47600;DHT22;33323;52.124;6.018;2023-04-10T09:26:54;14.20;99.90
47600;DHT22;33323;52.124;6.018;2023-04-10T09:29:22;14.20;99.90
47600;DHT22;33323;52.124;6.018;2023-04-10T09:31:49;14.00;99.90
47600;DHT22;33323;52.124;6.018;2023-04-10T09:34:21;13.90;99.90
47600;DHT22;33323;52.124;6.018;2023-04-10T09:36:56;13.90;99.90
47600;DHT22;33323;52.124;6.018;2023-04-10T09:39:37;13.90;99.90
47600;DHT22;33323;52.124;6.018;2023-04-10T09:42:09;14.10;99.90
47600;DHT22;33323;52.124;6.018;2023-04-10T09:44:39;14.30;99.90
47600;DHT22;33323;52.124;6.018;2023-04-10T09:49:53;14.30;99.90
47600;DHT22;33323;52.124;6.018;2023-04-10T09:54:53;14.20;99.90
47600;DHT22;33323;52.124;6.018;2023-04-10T09:57:23;14.20;99.90
47600;DHT22;33323;52.124;6.018;2023-04-10T09:59:53;14.30;99.90
47600;DHT22;33323;52.124;6.018;2023-04-10T10:02:25;14.20;99.90
47600;DHT22;33323;52.124;6.018;2023-04-10T10:04:56;14.00;99.90
47600;DHT22;33323;52.124;6.018;2023-04-10T10:07:26;13.90;99.90
47600;DHT22;33323;52.124;6.018;2023-04-10T10:09:57;13.90;99.90
47600;DHT22;33323;52.124;6.018;2023-04-10T10:12:35;13.90;99.90
47600;DHT22;33323;52.124;6.018;2023-04-10T10:15:22;14.00;99.90
47600;DHT22;33323;52.124;6.018;2023-04-10T10:18:16;13.90;99.90
47600;DHT22;33323;52.124;6.018;2023-04-10T10:20:49;13.80;99.90
47600;DHT22;33323;52.124;6.018;2023-04-10T10:23:18;13.90;99.90
47600;DHT22;33323;52.124;6.018;2023-04-10T10:25:45;13.80;99.90
47600;DHT22;33323;52.124;6.018;2023-04-10T10:28:13;13.90;99.90
47600;DHT22;33323;52.124;6.018;2023-04-10T10:30:42;14.00;99.90
47600;DHT22;33323;52.124;6.018;2023-04-10T10:33:11;14.10;99.90
47600;DHT22;33323;52.124;6.018;2023-04-10T10:35:39;14.20;99.90
47600;DHT22;33323;52.124;6.018;2023-04-10T10:38:07;14.30;99.90
47600;DHT22;33323;52.124;6.018;2023-04-10T10:41:00;14.40;99.90
47600;DHT22;33323;52.124;6.018;2023-04-10T10:43:49;14.30;99.90
47600;DHT22;33323;52.124;6.018;2023-04-10T10:46:43;14.40;99.90
47600;DHT22;33323;52.124;6.018;2023-04-10T10:49:14;14.50;99.90
47600;DHT22;33323;52.124;6.018;2023-04-10T10:51:51;14.50;99.90
47600;DHT22;33323;52.124;6.018;2023-04-10T10:54:31;14.40;99.90
47600;DHT22;33323;52.124;6.018;2023-04-10T10:57:01;14.50;99.90
47600;DHT22;33323;52.124;6.018;2023-04-10T11:02:16;14.60;99.90
47600;DHT22;33323;52.124;6.018;2023-04-10T11:04:46;14.60;99.90
47600;DHT22;33323;52.124;6.018;2023-04-10T11:07:15;14.60;99.90
47600;DHT22;33323;52.124;6.018;2023-04-10T11:09:53;14.60;99.90
47600;DHT22;33323;52.124;6.018;2023-04-10T11:12:24;14.70;99.90
47600;DHT22;33323;52.124;6.018;2023-04-10T11:15:02;14.80;99.90
47600;DHT22;33323;52.124;6.018;2023-04-10T11:17:52;14.90;99.90
47600;DHT22;33323;52.124;6.018;2023-04-10T11:20:20;15.00;99.90
47600;DHT22;33323;52.124;6.018;2023-04-10T11:23:11;15.10;99.90
47600;DHT22;33323;52.124;6.018;2023-04-10T11:25:49;15.10;99.90
47600;DHT22;33323;52.124;6.018;2023-04-10T11:28:37;15.20;99.90
47600;DHT22;33323;52.124;6.018;2023-04-10T11:31:20;15.40;99.90
47600;DHT22;33323;52.124;6.018;2023-04-10T11:34:01;15.60;99.90
47600;DHT22;33323;52.124;6.018;2023-04-10T11:36:31;15.70;99.90
47600;DHT22;33323;52.124;6.018;2023-04-10T11:39:03;15.80;99.90
47600;DHT22;33323;52.124;6.018;2023-04-10T11:41:35;15.90;99.90
47600;DHT22;33323;52.124;6.018;2023-04-10T11:44:06;16.00;99.90
47600;DHT22;33323;52.124;6.018;2023-04-10T11:46:40;16.10;99.90
47600;DHT22;33323;52.124;6.018;2023-04-10T11:49:09;16.20;99.90
47600;DHT22;33323;52.124;6.018;2023-04-10T11:51:38;16.20;99.90
47600;DHT22;33323;52.124;6.018;2023-04-10T11:54:14;16.50;99.90
47600;DHT22;33323;52.124;6.018;2023-04-10T11:59:27;17.20;99.90
47600;DHT22;33323;52.124;6.018;2023-04-10T12:02:12;17.20;99.90
47600;DHT22;33323;52.124;6.018;2023-04-10T12:04:43;17.10;99.90
47600;DHT22;33323;52.124;6.018;2023-04-10T12:07:10;16.80;99.90
47600;DHT22;33323;52.124;6.018;2023-04-10T12:09:38;16.70;99.90
47600;DHT22;33323;52.124;6.018;2023-04-10T12:12:07;16.60;99.90
47600;DHT22;33323;52.124;6.018;2023-04-10T12:14:39;16.60;99.90
47600;DHT22;33323;52.124;6.018;2023-04-10T12:17:09;16.60;99.90
47600;DHT22;33323;52.124;6.018;2023-04-10T12:19:40;16.50;99.90
47600;DHT22;33323;52.124;6.018;2023-04-10T12:22:10;16.50;99.90
47600;DHT22;33323;52.124;6.018;2023-04-10T12:24:49;16.50;99.90
47600;DHT22;33323;52.124;6.018;2023-04-10T12:27:25;16.40;99.90
47600;DHT22;33323;52.124;6.018;2023-04-10T12:29:55;16.50;99.90
47600;DHT22;33323;52.124;6.018;2023-04-10T12:32:24;16.60;99.90
47600;DHT22;33323;52.124;6.018;2023-04-10T12:34:55;16.70;99.90
47600;DHT22;33323;52.124;6.018;2023-04-10T12:37:25;16.90;99.90
47600;DHT22;33323;52.124;6.018;2023-04-10T12:40:18;16.90;99.90
47600;DHT22;33323;52.124;6.018;2023-04-10T12:42:46;16.90;99.90
47600;DHT22;33323;52.124;6.018;2023-04-10T12:45:13;16.90;99.90
47600;DHT22;33323;52.124;6.018;2023-04-10T12:47:47;16.90;99.90
47600;DHT22;33323;52.124;6.018;2023-04-10T12:50:17;16.90;99.90
47600;DHT22;33323;52.124;6.018;2023-04-10T12:53:01;17.00;99.90
47600;DHT22;33323;52.124;6.018;2023-04-10T12:55:30;17.00;99.90
47600;DHT22;33323;52.124;6.018;2023-04-10T12:58:15;17.00;99.90
47600;DHT22;33323;52.124;6.018;2023-04-10T13:00:43;17.10;99.90
47600;DHT22;33323;52.124;6.018;2023-04-10T13:03:11;17.00;99.90
47600;DHT22;33323;52.124;6.018;2023-04-10T13:05:38;17.00;99.90
47600;DHT22;33323;52.124;6.018;2023-04-10T13:08:06;16.90;99.90
47600;DHT22;33323;52.124;6.018;2023-04-10T13:10:33;16.80;99.90
47600;DHT22;33323;52.124;6.018;2023-04-10T13:13:03;16.70;99.90
47600;DHT22;33323;52.124;6.018;2023-04-10T13:15:33;16.60;99.90
47600;DHT22;33323;52.124;6.018;2023-04-10T13:18:00;16.50;99.90
47600;DHT22;33323;52.124;6.018;2023-04-10T13:20:39;16.40;99.90
47600;DHT22;33323;52.124;6.018;2023-04-10T13:23:07;16.40;99.90
47600;DHT22;33323;52.124;6.018;2023-04-10T13:25:37;16.30;99.90
47600;DHT22;33323;52.124;6.018;2023-04-10T13:28:06;16.30;99.90
47600;DHT22;33323;52.124;6.018;2023-04-10T13:30:41;16.20;99.90
47600;DHT22;33323;52.124;6.018;2023-04-10T13:33:09;16.10;99.90
47600;DHT22;33323;52.124;6.018;2023-04-10T13:35:37;16.00;99.90
47600;DHT22;33323;52.124;6.018;2023-04-10T13:38:06;16.00;99.90
47600;DHT22;33323;52.124;6.018;2023-04-10T13:40:35;15.90;99.90
47600;DHT22;33323;52.124;6.018;2023-04-10T13:43:02;15.80;99.90
47600;DHT22;33323;52.124;6.018;2023-04-10T13:45:33;15.80;99.90
47600;DHT22;33323;52.124;6.018;2023-04-10T13:48:00;15.70;99.90
47600;DHT22;33323;52.124;6.018;2023-04-10T13:50:28;15.70;99.90
47600;DHT22;33323;52.124;6.018;2023-04-10T13:52:55;15.70;99.90
47600;DHT22;33323;52.124;6.018;2023-04-10T13:55:22;15.60;99.90
47600;DHT22;33323;52.124;6.018;2023-04-10T13:57:49;15.60;99.90
47600;DHT22;33323;52.124;6.018;2023-04-10T14:00:17;15.60;99.90
47600;DHT22;33323;52.124;6.018;2023-04-10T14:02:44;15.50;99.90
47600;DHT22;33323;52.124;6.018;2023-04-10T14:05:12;15.60;99.90
47600;DHT22;33323;52.124;6.018;2023-04-10T14:07:39;15.60;99.90
47600;DHT22;33323;52.124;6.018;2023-04-10T14:10:07;15.60;99.90
47600;DHT22;33323;52.124;6.018;2023-04-10T14:12:35;15.50;99.90
47600;DHT22;33323;52.124;6.018;2023-04-10T14:15:04;15.50;99.90
47600;DHT22;33323;52.124;6.018;2023-04-10T14:17:31;15.50;99.90
47600;DHT22;33323;52.124;6.018;2023-04-10T14:19:59;15.50;99.90
47600;DHT22;33323;52.124;6.018;2023-04-10T14:22:27;15.50;99.90
47600;DHT22;33323;52.124;6.018;2023-04-10T14:24:56;15.50;99.90
47600;DHT22;33323;52.124;6.018;2023-04-10T14:27:37;15.60;99.90
47600;DHT22;33323;52.124;6.018;2023-04-10T14:30:05;15.70;99.90
47600;DHT22;33323;52.124;6.018;2023-04-10T14:32:33;15.70;99.90
47600;DHT22;33323;52.124;6.018;2023-04-10T14:35:00;15.80;99.90
47600;DHT22;33323;52.124;6.018;2023-04-10T14:37:28;15.70;99.90
47600;DHT22;33323;52.124;6.018;2023-04-10T14:39:55;15.70;99.90
47600;DHT22;33323;52.124;6.018;2023-04-10T14:42:22;15.70;99.90
47600;DHT22;33323;52.124;6.018;2023-04-10T14:44:50;15.80;99.90
47600;DHT22;33323;52.124;6.018;2023-04-10T14:47:17;15.80;99.90
47600;DHT22;33323;52.124;6.018;2023-04-10T14:49:44;15.80;99.90
47600;DHT22;33323;52.124;6.018;2023-04-10T14:52:12;15.80;99.90
47600;DHT22;33323;52.124;6.018;2023-04-10T14:54:39;15.90;99.90
47600;DHT22;33323;52.124;6.018;2023-04-10T14:57:06;15.90;99.90
47600;DHT22;33323;52.124;6.018;2023-04-10T14:59:33;15.90;99.90
47600;DHT22;33323;52.124;6.018;2023-04-10T15:02:01;15.90;99.90
47600;DHT22;33323;52.124;6.018;2023-04-10T15:04:28;15.90;99.90
47600;DHT22;33323;52.124;6.018;2023-04-10T15:06:56;15.90;99.90
47600;DHT22;33323;52.124;6.018;2023-04-10T15:09:23;15.90;99.90
47600;DHT22;33323;52.124;6.018;2023-04-10T15:11:50;15.80;99.90
47600;DHT22;33323;52.124;6.018;2023-04-10T15:14:17;15.70;99.90
47600;DHT22;33323;52.124;6.018;2023-04-10T15:16:44;15.60;99.90
47600;DHT22;33323;52.124;6.018;2023-04-10T15:19:13;15.40;99.90
47600;DHT22;33323;52.124;6.018;2023-04-10T15:21:40;15.20;99.90
47600;DHT22;33323;52.124;6.018;2023-04-10T15:24:07;15.00;99.90
47600;DHT22;33323;52.124;6.018;2023-04-10T15:26:34;14.70;99.90
47600;DHT22;33323;52.124;6.018;2023-04-10T15:29:01;14.50;99.90
47600;DHT22;33323;52.124;6.018;2023-04-10T15:31:29;14.20;99.90
47600;DHT22;33323;52.124;6.018;2023-04-10T15:33:56;14.00;99.90
47600;DHT22;33323;52.124;6.018;2023-04-10T15:36:23;13.90;99.90
47600;DHT22;33323;52.124;6.018;2023-04-10T15:38:50;13.70;99.90
47600;DHT22;33323;52.124;6.018;2023-04-10T15:41:17;13.60;99.90
47600;DHT22;33323;52.124;6.018;2023-04-10T15:43:45;13.50;99.90
47600;DHT22;33323;52.124;6.018;2023-04-10T15:46:12;13.30;99.90
47600;DHT22;33323;52.124;6.018;2023-04-10T15:48:40;13.20;99.90
47600;DHT22;33323;52.124;6.018;2023-04-10T15:51:07;13.10;99.90
47600;DHT22;33323;52.124;6.018;2023-04-10T15:53:35;13.10;99.90
47600;DHT22;33323;52.124;6.018;2023-04-10T15:56:06;13.00;99.90
47600;DHT22;33323;52.124;6.018;2023-04-10T15:58:34;13.00;99.90
47600;DHT22;33323;52.124;6.018;2023-04-10T16:01:01;12.90;99.90
47600;DHT22;33323;52.124;6.018;2023-04-10T16:03:28;12.90;99.90
47600;DHT22;33323;52.124;6.018;2023-04-10T16:05:56;12.90;99.90
47600;DHT22;33323;52.124;6.018;2023-04-10T16:08:24;12.90;99.90
47600;DHT22;33323;52.124;6.018;2023-04-10T16:10:54;12.80;99.90
47600;DHT22;33323;52.124;6.018;2023-04-10T16:13:22;12.80;99.90
47600;DHT22;33323;52.124;6.018;2023-04-10T16:15:49;12.80;99.90
47600;DHT22;33323;52.124;6.018;2023-04-10T16:18:20;12.70;99.90
47600;DHT22;33323;52.124;6.018;2023-04-10T16:20:47;12.80;99.90
47600;DHT22;33323;52.124;6.018;2023-04-10T16:23:14;12.80;99.90
47600;DHT22;33323;52.124;6.018;2023-04-10T16:25:41;12.70;99.90
47600;DHT22;33323;52.124;6.018;2023-04-10T16:28:08;12.70;99.90
47600;DHT22;33323;52.124;6.018;2023-04-10T16:30:36;12.80;99.90
47600;DHT22;33323;52.124;6.018;2023-04-10T16:33:05;12.80;99.90